Time;durP1;ratioP1;P1;durP2;ratioP2;P2;SDS_P1;SDS_P2;PMS_P1;PMS_P2;Temp;Humidity;BMP_temperature;BMP_pressure;BME280_temperature;BME280_humidity;BME280_pressure;Samples;Min_cycle;Max_cycle;Signal;HPM_P1;HPM_P2
2022/09/18 00:01:24;;;;;;;19.17;2.67;;;;;;;10.74;100.00;101427.16;5054668;28;20049;-72
2022/09/18 00:03:52;;;;;;;10.15;2.33;;;;;;;10.83;100.00;101424.00;5055488;28;20465;-72
2022/09/18 00:06:20;;;;;;;19.05;2.67;;;;;;;10.84;100.00;101431.03;5062551;28;20037;-72
2022/09/18 00:08:50;;;;;;;18.13;3.90;;;;;;;10.82;100.00;101428.47;5060972;28;20037;-72
2022/09/18 00:11:15;;;;;;;17.30;3.63;;;;;;;10.84;100.00;101426.59;5055525;28;20052;-72
2022/09/18 00:13:41;;;;;;;27.27;3.63;;;;;;;10.85;100.00;101430.13;5058207;28;20063;-72
2022/09/18 00:16:09;;;;;;;11.65;2.88;;;;;;;10.83;100.00;101426.66;5061588;28;20043;-72
2022/09/18 00:18:35;;;;;;;15.75;2.85;;;;;;;10.85;100.00;101430.13;5061350;28;20048;-72
2022/09/18 00:21:12;;;;;;;16.45;3.90;;;;;;;10.90;100.00;101422.72;5061905;28;20047;-72
2022/09/18 00:23:38;;;;;;;17.52;2.47;;;;;;;10.91;100.00;101432.44;5058789;28;20029;-72
2022/09/18 00:26:04;;;;;;;7.38;2.40;;;;;;;10.90;100.00;101430.72;5057681;28;20048;-71
2022/09/18 00:28:31;;;;;;;10.00;2.78;;;;;;;10.93;100.00;101419.88;5056381;28;20029;-72
2022/09/18 00:31:06;;;;;;;9.13;2.17;;;;;;;10.91;100.00;101434.25;5059883;28;20036;-72
2022/09/18 00:33:31;;;;;;;9.20;3.67;;;;;;;10.89;100.00;101431.66;5059289;28;20722;-72
2022/09/18 00:36:05;;;;;;;10.27;1.85;;;;;;;10.92;100.00;101428.81;5054466;28;20048;-73
2022/09/18 00:38:31;;;;;;;15.10;2.75;;;;;;;10.92;100.00;101425.28;5050382;28;20614;-71
2022/09/18 00:40:59;;;;;;;10.35;3.20;;;;;;;10.91;100.00;101418.25;5057781;28;20031;-72
2022/09/18 00:43:30;;;;;;;9.32;2.25;;;;;;;10.94;100.00;101418.06;5038806;28;20127;-71
2022/09/18 00:46:01;;;;;;;12.18;2.00;;;;;;;10.93;100.00;101411.88;5035511;28;20033;-72
2022/09/18 00:48:44;;;;;;;13.80;2.30;;;;;;;10.95;100.00;101415.31;5053233;28;20037;-72
2022/09/18 00:51:10;;;;;;;8.25;2.35;;;;;;;10.93;100.00;101419.88;5056973;28;20066;-72
2022/09/18 00:53:41;;;;;;;7.28;2.55;;;;;;;11.00;100.00;101423.06;5054089;28;20040;-72
2022/09/18 00:56:08;;;;;;;14.68;3.08;;;;;;;10.97;100.00;101423.22;5057606;28;20806;-72
2022/09/18 00:58:34;;;;;;;16.45;2.58;;;;;;;10.99;100.00;101422.19;5042259;28;20047;-72
2022/09/18 01:01:01;;;;;;;12.88;2.47;;;;;;;11.00;100.00;101418.59;5031726;28;20052;-72
2022/09/18 01:03:28;;;;;;;10.13;2.33;;;;;;;11.03;100.00;101425.56;5060118;28;20042;-72
2022/09/18 01:06:17;;;;;;;17.13;3.50;;;;;;;11.05;100.00;101423.69;5041778;28;20044;-72
2022/09/18 01:08:51;;;;;;;18.25;2.38;;;;;;;11.08;100.00;101419.00;5040393;28;20032;-73
2022/09/18 01:11:26;;;;;;;16.52;3.53;;;;;;;11.11;100.00;101420.66;5025785;28;20049;-73
2022/09/18 01:14:21;;;;;;;10.23;2.67;;;;;;;11.10;100.00;101422.47;5037343;28;20409;-74
2022/09/18 01:16:56;;;;;;;10.68;3.13;;;;;;;11.08;100.00;101423.50;5042929;28;20037;-72
2022/09/18 01:19:51;;;;;;;12.35;2.67;;;;;;;11.08;100.00;101421.69;5061038;28;20032;-73
2022/09/18 01:22:32;;;;;;;17.20;2.70;;;;;;;11.08;100.00;101421.69;5018962;28;20536;-73
2022/09/18 01:25:21;;;;;;;13.43;3.42;;;;;;;11.01;100.00;101409.63;5042402;28;20107;-72
2022/09/18 01:28:10;;;;;;;7.03;2.10;;;;;;;11.05;100.00;101402.34;5038241;28;20128;-73
2022/09/18 01:30:41;;;;;;;16.27;3.40;;;;;;;11.02;100.00;101406.00;5060165;28;20489;-72
2022/09/18 01:33:32;;;;;;;13.93;3.15;;;;;;;11.01;100.00;101400.78;5042106;28;20805;-73
2022/09/18 01:36:02;;;;;;;11.30;2.10;;;;;;;11.00;100.00;101399.06;5030498;28;20037;-73
2022/09/18 01:38:43;;;;;;;16.40;2.47;;;;;;;10.99;100.00;101402.66;5060056;28;20129;-72
2022/09/18 01:41:14;;;;;;;4.45;1.90;;;;;;;10.99;100.00;101408.84;5035959;28;20041;-72
2022/09/18 01:43:42;;;;;;;16.98;2.92;;;;;;;10.98;100.00;101401.78;5040548;28;20541;-72
2022/09/18 01:46:14;;;;;;;21.92;3.75;;;;;;;11.00;100.00;101407.91;5019365;28;20478;-73
2022/09/18 01:48:47;;;;;;;9.90;2.78;;;;;;;11.00;100.00;101405.25;5042379;28;20040;-72
2022/09/18 01:51:25;;;;;;;11.65;2.33;;;;;;;11.04;100.00;101413.94;5050300;28;20067;-72
2022/09/18 01:53:55;;;;;;;8.55;2.60;;;;;;;11.05;100.00;101411.19;5038091;28;20060;-72
2022/09/18 01:56:46;;;;;;;13.88;2.30;;;;;;;11.01;100.00;101406.97;5057356;28;20044;-72
2022/09/18 01:59:18;;;;;;;11.43;2.42;;;;;;;11.01;100.00;101404.31;5030983;28;20760;-72
2022/09/18 02:01:54;;;;;;;16.98;2.13;;;;;;;11.02;100.00;101403.34;5040646;28;20064;-72
2022/09/18 02:04:25;;;;;;;10.18;2.35;;;;;;;11.00;100.00;101397.25;5033822;28;20485;-71
2022/09/18 02:06:59;;;;;;;7.30;2.08;;;;;;;11.04;100.00;101393.44;5041180;28;20044;-72
2022/09/18 02:09:26;;;;;;;10.15;2.20;;;;;;;11.06;100.00;101399.56;5044301;28;20040;-72
2022/09/18 02:11:55;;;;;;;13.60;2.10;;;;;;;11.06;100.00;101396.03;5045277;28;20400;-72
2022/09/18 02:14:28;;;;;;;7.43;1.75;;;;;;;11.02;100.00;101398.00;5037772;28;20154;-72
2022/09/18 02:17:16;;;;;;;17.80;2.25;;;;;;;10.99;100.00;101387.50;5051959;28;20123;-73
2022/09/18 02:19:56;;;;;;;6.68;1.90;;;;;;;10.99;100.00;101390.16;5044375;28;20036;-72
2022/09/18 02:22:23;;;;;;;16.63;2.92;;;;;;;10.99;100.00;101397.31;5059893;28;20037;-73
2022/09/18 02:24:52;;;;;;;9.40;2.92;;;;;;;10.94;100.00;101402.03;5043831;28;20032;-73
2022/09/18 02:27:20;;;;;;;13.88;2.00;;;;;;;10.95;100.00;101398.47;5041111;28;20041;-72
2022/09/18 02:29:47;;;;;;;12.00;2.33;;;;;;;10.96;100.00;101403.69;5059936;28;20109;-72
2022/09/18 02:32:13;;;;;;;13.02;2.08;;;;;;;10.93;100.00;101398.53;5027714;28;20128;-73
2022/09/18 02:34:40;;;;;;;17.90;3.08;;;;;;;10.90;100.00;101388.03;5041334;28;20086;-72
2022/09/18 02:37:23;;;;;;;10.98;2.65;;;;;;;10.88;100.00;101387.25;5044332;28;20037;-71
2022/09/18 02:40:22;;;;;;;10.10;2.10;;;;;;;10.91;100.00;101389.75;5059058;28;20041;-73
2022/09/18 02:43:31;;;;;;;5.82;2.05;;;;;;;10.92;100.00;101387.94;5034792;28;20091;-72
2022/09/18 02:46:20;;;;;;;9.02;1.90;;;;;;;10.89;100.00;101384.50;5056703;28;20040;-74
2022/09/18 02:49:11;;;;;;;12.90;2.30;;;;;;;10.88;100.00;101381.91;5057821;28;20044;-72
2022/09/18 02:52:12;;;;;;;8.68;2.85;;;;;;;10.89;100.00;101380.94;5046425;28;20036;-73
2022/09/18 02:54:47;;;;;;;14.23;1.92;;;;;;;10.87;100.00;101383.72;5042333;28;20048;-72
2022/09/18 02:57:20;;;;;;;10.70;2.13;;;;;;;10.84;100.00;101378.56;5062761;28;20068;-74
2022/09/18 02:59:50;;;;;;;12.38;2.30;;;;;;;10.84;100.00;101381.25;5063816;28;20121;-73
2022/09/18 03:02:19;;;;;;;16.80;2.17;;;;;;;10.84;100.00;101383.03;5037718;28;20083;-73
2022/09/18 03:04:44;;;;;;;19.17;2.05;;;;;;;10.85;100.00;101390.09;5038501;28;20170;-72
2022/09/18 03:07:16;;;;;;;14.90;2.15;;;;;;;10.93;100.00;101385.19;5037673;28;20075;-73
2022/09/18 03:09:42;;;;;;;13.68;2.58;;;;;;;10.88;100.00;101382.75;5038406;28;20940;-73
2022/09/18 03:12:08;;;;;;;10.20;2.40;;;;;;;10.90;100.00;101382.69;5037919;28;20068;-75
2022/09/18 03:14:37;;;;;;;9.43;2.17;;;;;;;10.85;100.00;101379.44;5041826;28;20044;-73
2022/09/18 03:17:04;;;;;;;13.63;2.60;;;;;;;10.82;100.00;101369.78;5058647;28;20060;-73
2022/09/18 03:19:30;;;;;;;14.95;2.47;;;;;;;10.83;100.00;101370.63;5040206;28;20029;-73
2022/09/18 03:21:57;;;;;;;19.98;3.58;;;;;;;10.82;100.00;101372.44;5042046;28;20038;-72
2022/09/18 03:24:26;;;;;;;10.07;2.50;;;;;;;10.81;100.00;101364.53;5041137;28;20025;-73
2022/09/18 03:26:52;;;;;;;9.50;3.08;;;;;;;10.79;100.00;101361.97;5043236;28;20037;-73
2022/09/18 03:29:21;;;;;;;9.95;1.98;;;;;;;10.79;100.00;101359.28;5034242;28;20029;-72
2022/09/18 03:31:47;;;;;;;14.55;2.40;;;;;;;10.78;100.00;101357.56;5041799;28;20041;-73
2022/09/18 03:34:12;;;;;;;15.38;3.45;;;;;;;10.83;100.00;101362.63;5038378;28;20034;-73
2022/09/18 03:36:37;;;;;;;17.77;3.05;;;;;;;10.85;100.00;101363.41;5038415;28;20037;-73
2022/09/18 03:39:04;;;;;;;8.38;2.53;;;;;;;10.77;100.00;101362.97;5037774;28;20029;-74
2022/09/18 03:41:30;;;;;;;13.90;3.08;;;;;;;10.83;100.00;101362.63;5043094;28;20025;-74
2022/09/18 03:43:56;;;;;;;12.30;3.20;;;;;;;10.77;100.00;101358.50;5045781;28;20056;-72
2022/09/18 03:46:22;;;;;;;13.93;3.13;;;;;;;10.78;100.00;101356.69;5043807;28;20037;-73
2022/09/18 03:48:51;;;;;;;17.55;2.72;;;;;;;10.79;100.00;101355.75;5038063;28;20038;-74
2022/09/18 03:51:18;;;;;;;13.20;3.00;;;;;;;10.75;100.00;101354.22;5044628;28;20386;-73
2022/09/18 03:53:45;;;;;;;14.43;3.63;;;;;;;10.76;100.00;101350.59;5038168;28;20076;-72
2022/09/18 03:56:29;;;;;;;10.68;2.33;;;;;;;10.76;100.00;101356.78;5045677;28;20047;-73
2022/09/18 03:59:05;;;;;;;11.68;3.22;;;;;;;10.76;100.00;101345.25;5039658;28;20033;-73
2022/09/18 04:01:56;;;;;;;16.13;2.90;;;;;;;10.79;100.00;101358.41;5056273;28;20515;-74
2022/09/18 04:04:25;;;;;;;12.25;2.83;;;;;;;10.77;100.00;101354.97;5064891;28;20131;-74
2022/09/18 04:07:10;;;;;;;9.82;2.90;;;;;;;10.78;100.00;101362.03;5061155;28;20083;-72
2022/09/18 04:09:54;;;;;;;16.25;4.00;;;;;;;10.81;100.00;101352.06;5066831;28;20052;-74
2022/09/18 04:12:20;;;;;;;12.05;3.08;;;;;;;10.81;100.00;101362.72;5048479;28;20040;-74
2022/09/18 04:14:54;;;;;;;16.95;3.58;;;;;;;10.82;100.00;101358.25;5046158;28;20043;-73
2022/09/18 04:17:20;;;;;;;12.07;2.95;;;;;;;10.82;100.00;101344.91;5063278;28;20029;-73
2022/09/18 04:19:45;;;;;;;10.35;3.08;;;;;;;10.83;100.00;101347.47;5054083;28;20089;-73
2022/09/18 04:22:11;;;;;;;15.60;2.80;;;;;;;10.80;100.00;101345.00;5063751;28;20055;-72
2022/09/18 04:24:38;;;;;;;16.60;2.72;;;;;;;10.84;100.00;101346.56;5045912;28;20135;-73
2022/09/18 04:27:05;;;;;;;7.90;2.30;;;;;;;10.84;100.00;101351.91;5039389;28;20085;-74
2022/09/18 04:29:31;;;;;;;14.23;2.38;;;;;;;10.85;100.00;101350.09;5046154;28;20461;-74
2022/09/18 04:31:58;;;;;;;6.70;1.98;;;;;;;10.84;100.00;101354.56;5045510;28;20041;-74
2022/09/18 04:34:24;;;;;;;9.68;1.65;;;;;;;10.85;100.00;101350.94;5045821;28;20043;-73
2022/09/18 04:36:49;;;;;;;14.70;2.22;;;;;;;10.84;100.00;101351.91;5060455;28;20045;-73
2022/09/18 04:39:15;;;;;;;12.38;2.67;;;;;;;10.79;100.00;101347.75;5057905;28;20041;-72
2022/09/18 04:41:41;;;;;;;12.13;1.90;;;;;;;10.83;100.00;101350.16;5045685;28;20044;-74
2022/09/18 04:44:06;;;;;;;14.55;2.53;;;;;;;10.79;100.00;101351.28;5065621;28;20047;-73
2022/09/18 04:46:32;;;;;;;7.15;1.70;;;;;;;10.79;100.00;101350.41;5044342;28;20032;-74
2022/09/18 04:48:59;;;;;;;11.27;2.38;;;;;;;10.81;100.00;101357.38;5039615;28;20064;-73
2022/09/18 04:51:26;;;;;;;6.50;1.75;;;;;;;10.77;100.00;101353.16;5046900;28;20111;-73
2022/09/18 04:53:51;;;;;;;15.88;4.80;;;;;;;10.79;100.00;101353.06;5046946;28;20420;-73
2022/09/18 04:56:17;;;;;;;9.70;2.00;;;;;;;10.79;100.00;101355.75;5040569;28;20792;-73
2022/09/18 04:58:47;;;;;;;7.10;1.88;;;;;;;10.78;100.00;101356.69;5039877;28;20064;-73
2022/09/18 05:01:12;;;;;;;9.27;2.05;;;;;;;10.80;100.00;101358.34;5055390;28;20056;-73
2022/09/18 05:03:39;;;;;;;8.70;2.47;;;;;;;10.80;100.00;101355.69;5039166;28;20128;-73
2022/09/18 05:06:07;;;;;;;10.80;3.03;;;;;;;10.81;100.00;101353.88;5038462;28;20060;-73
2022/09/18 05:08:33;;;;;;;4.93;1.40;;;;;;;10.83;100.00;101360.81;5041419;28;20024;-73
2022/09/18 05:11:00;;;;;;;9.18;2.38;;;;;;;10.85;100.00;101360.75;5063302;28;20044;-72
2022/09/18 05:13:29;;;;;;;7.25;2.30;;;;;;;10.84;100.00;101359.91;5041816;28;20140;-73
2022/09/18 05:16:03;;;;;;;11.85;2.45;;;;;;;10.84;100.00;101357.22;5041638;28;20135;-73
2022/09/18 05:18:29;;;;;;;8.90;2.20;;;;;;;10.85;100.00;101358.94;5044995;28;20029;-72
2022/09/18 05:21:03;;;;;;;13.27;2.30;;;;;;;10.88;100.00;101361.41;5044832;28;20044;-74
2022/09/18 05:23:33;;;;;;;7.05;2.03;;;;;;;10.85;100.00;101350.94;5039750;28;20132;-73
2022/09/18 05:25:58;;;;;;;6.45;1.60;;;;;;;10.83;100.00;101349.28;5060237;28;20098;-73
2022/09/18 05:28:24;;;;;;;14.98;2.20;;;;;;;10.83;100.00;101343.94;5043272;28;20048;-72
2022/09/18 05:30:52;;;;;;;13.40;1.90;;;;;;;10.82;100.00;101342.25;5057760;28;20098;-73
2022/09/18 05:33:17;;;;;;;4.95;1.80;;;;;;;10.86;100.00;101343.78;5061721;28;20033;-74
2022/09/18 05:35:43;;;;;;;9.07;2.28;;;;;;;10.87;100.00;101349.03;5041176;28;20086;-74
2022/09/18 05:38:10;;;;;;;6.65;1.63;;;;;;;10.85;100.00;101350.09;5059790;28;20045;-74
2022/09/18 05:40:39;;;;;;;15.57;1.73;;;;;;;10.85;100.00;101355.41;5040135;28;20052;-74
2022/09/18 05:43:06;;;;;;;6.82;1.50;;;;;;;10.84;100.00;101353.66;5062906;28;20041;-73
2022/09/18 05:45:33;;;;;;;12.93;1.85;;;;;;;10.82;100.00;101344.91;5058816;28;20029;-74
2022/09/18 05:48:04;;;;;;;9.20;1.60;;;;;;;10.87;100.00;101346.38;5063810;28;20054;-74
2022/09/18 05:50:31;;;;;;;13.95;1.55;;;;;;;10.87;100.00;101340.16;5043465;28;20025;-74
2022/09/18 05:53:11;;;;;;;6.60;1.42;;;;;;;10.91;100.00;101346.19;5046250;28;20035;-73
2022/09/18 05:55:48;;;;;;;12.73;2.15;;;;;;;10.92;100.00;101347.91;5028003;28;20036;-74
2022/09/18 05:58:16;;;;;;;6.38;1.30;;;;;;;10.89;100.00;101340.94;5047707;28;20070;-73
2022/09/18 06:00:43;;;;;;;9.40;2.45;;;;;;;10.89;100.00;101344.50;5044766;28;20456;-72
2022/09/18 06:03:14;;;;;;;5.40;1.52;;;;;;;10.93;100.00;101344.28;5045372;28;20464;-73
2022/09/18 06:05:40;;;;;;;8.95;1.92;;;;;;;11.00;100.00;101345.69;5038177;28;20037;-72
2022/09/18 06:08:11;;;;;;;5.70;1.40;;;;;;;10.91;100.00;101341.72;5047075;28;20029;-72
2022/09/18 06:10:39;;;;;;;10.40;1.98;;;;;;;10.97;100.00;101341.38;5047045;28;20032;-71
2022/09/18 06:13:08;;;;;;;7.60;1.80;;;;;;;11.05;100.00;101335.59;5042299;28;20044;-72
2022/09/18 06:15:38;;;;;;;4.88;1.83;;;;;;;11.02;100.00;101338.44;5040503;28;20466;-71
2022/09/18 06:18:07;;;;;;;8.93;2.00;;;;;;;11.05;100.00;101344.47;5045733;28;20039;-73
2022/09/18 06:20:33;;;;;;;9.75;1.85;;;;;;;11.06;100.00;101343.53;5041581;28;20040;-72
2022/09/18 06:23:01;;;;;;;10.27;1.85;;;;;;;11.06;100.00;101330.19;5045764;28;20081;-72
2022/09/18 06:25:37;;;;;;;9.20;2.95;;;;;;;11.02;100.00;101333.97;5044701;28;20044;-72
2022/09/18 06:28:05;;;;;;;6.40;2.30;;;;;;;11.10;100.00;101337.06;5038271;28;20178;-72
2022/09/18 06:30:32;;;;;;;5.88;1.15;;;;;;;11.11;100.00;101338.78;5062210;28;20677;-72
2022/09/18 06:33:05;;;;;;;9.52;2.53;;;;;;;11.25;100.00;101339.78;5041126;28;20151;-72
2022/09/18 06:35:32;;;;;;;4.95;1.30;;;;;;;11.34;100.00;101339.22;5061788;28;20036;-72
2022/09/18 06:38:02;;;;;;;9.25;1.58;;;;;;;11.47;100.00;101344.72;5045985;28;20041;-73
2022/09/18 06:40:36;;;;;;;7.55;2.03;;;;;;;11.57;100.00;101341.41;5040939;28;20040;-71
2022/09/18 06:43:20;;;;;;;7.18;1.67;;;;;;;11.49;100.00;101345.47;5065585;28;20047;-72
2022/09/18 06:46:06;;;;;;;5.65;1.65;;;;;;;11.48;100.00;101349.09;5061989;28;20078;-72
2022/09/18 06:48:38;;;;;;;5.95;2.45;;;;;;;11.50;100.00;101348.09;5059096;28;20043;-73
2022/09/18 06:51:04;;;;;;;4.65;1.95;;;;;;;11.45;100.00;101341.31;5040843;28;20036;-71
2022/09/18 06:53:40;;;;;;;7.05;1.58;;;;;;;11.58;100.00;101345.81;5044381;28;20614;-72
2022/09/18 06:56:07;;;;;;;5.35;1.15;;;;;;;11.58;100.00;101336.94;5046593;28;20029;-73
2022/09/18 06:58:34;;;;;;;2.72;1.20;;;;;;;11.68;100.00;101338.97;5034413;28;20556;-72
2022/09/18 07:00:59;;;;;;;7.05;2.10;;;;;;;11.71;100.00;101340.59;5046482;28;20109;-71
2022/09/18 07:03:30;;;;;;;6.72;1.95;;;;;;;11.91;100.00;101334.94;5042794;28;20037;-72
2022/09/18 07:06:17;;;;;;;8.98;1.42;;;;;;;11.99;100.00;101337.13;5040237;28;20044;-72
2022/09/18 07:08:46;;;;;;;2.85;0.90;;;;;;;12.06;100.00;101335.81;5040445;28;20520;-72
2022/09/18 07:11:18;;;;;;;6.10;1.10;;;;;;;11.94;100.00;101336.56;5045154;28;20032;-72
2022/09/18 07:13:45;;;;;;;10.35;1.38;;;;;;;11.87;100.00;101337.88;5065723;28;20379;-72
2022/09/18 07:16:10;;;;;;;6.60;1.50;;;;;;;11.88;100.00;101342.28;5041548;28;20032;-72
2022/09/18 07:18:36;;;;;;;4.30;1.02;;;;;;;11.89;100.00;101338.63;5064130;28;20047;-72
2022/09/18 07:21:03;;;;;;;6.40;0.95;;;;;;;11.77;100.00;101339.38;5045883;28;20540;-71
2022/09/18 07:23:33;;;;;;;7.80;1.17;;;;;;;11.74;100.00;101343.06;5046623;28;20087;-72
2022/09/18 07:25:59;;;;;;;6.03;1.15;;;;;;;11.76;100.00;101349.19;5046328;28;20032;-73
2022/09/18 07:28:25;;;;;;;6.18;1.30;;;;;;;11.74;100.00;101343.06;5068175;28;20589;-72
2022/09/18 07:31:04;;;;;;;2.70;1.10;;;;;;;11.84;100.00;101343.41;5049555;28;20041;-73
2022/09/18 07:33:29;;;;;;;3.33;1.13;;;;;;;11.86;100.00;101353.06;5043080;28;20097;-72
2022/09/18 07:36:03;;;;;;;3.85;1.35;;;;;;;11.87;100.00;101340.56;5045227;28;20066;-72
2022/09/18 07:38:33;;;;;;;8.88;1.60;;;;;;;11.81;100.00;101351.59;5042872;28;20036;-72
2022/09/18 07:41:03;;;;;;;7.38;1.60;;;;;;;11.82;100.00;101351.53;5030629;28;20040;-73
2022/09/18 07:43:30;;;;;;;6.63;1.52;;;;;;;11.71;100.00;101347.75;5047407;28;20036;-72
2022/09/18 07:45:57;;;;;;;5.50;1.05;;;;;;;11.78;100.00;101352.63;5034713;28;20082;-73
2022/09/18 07:48:23;;;;;;;6.65;1.60;;;;;;;12.03;100.00;101349.34;5060011;28;20036;-73
2022/09/18 07:50:50;;;;;;;5.97;1.67;;;;;;;12.22;100.00;101349.09;5045848;28;20040;-72
2022/09/18 07:53:17;;;;;;;4.10;1.27;;;;;;;12.09;100.00;101348.97;5063870;28;20086;-72
2022/09/18 07:55:46;;;;;;;8.73;1.33;;;;;;;11.99;100.00;101349.63;5044232;28;20052;-73
2022/09/18 07:58:13;;;;;;;5.43;2.08;;;;;;;11.95;100.00;101345.41;5046356;28;20058;-72
2022/09/18 08:01:01;;;;;;;4.43;1.10;;;;;;;12.11;100.00;101347.09;5063717;28;20226;-74
2022/09/18 08:03:28;;;;;;;5.43;1.33;;;;;;;12.03;100.00;101341.34;5045307;28;20082;-73
2022/09/18 08:06:14;;;;;;;8.02;1.95;;;;;;;12.03;100.00;101360.03;5023256;28;20041;-73
2022/09/18 08:09:00;;;;;;;5.00;1.60;;;;;;;12.14;100.00;101352.22;5044954;28;20442;-73
2022/09/18 08:11:45;;;;;;;2.55;0.95;;;;;;;12.24;100.00;101349.84;5060215;28;20079;-72
2022/09/18 08:14:26;;;;;;;6.35;1.52;;;;;;;12.45;100.00;101363.72;5042406;28;20100;-73
2022/09/18 08:17:12;;;;;;;11.38;1.40;;;;;;;12.69;100.00;101355.91;5045161;28;20167;-74
2022/09/18 08:19:52;;;;;;;6.38;1.27;;;;;;;12.62;100.00;101359.97;5028110;28;20056;-73
2022/09/18 08:22:41;;;;;;;7.03;2.08;;;;;;;12.67;100.00;101352.50;5035471;28;20051;-73
2022/09/18 08:25:08;;;;;;;6.40;1.30;;;;;;;12.57;100.00;101354.91;5042394;28;20039;-73
2022/09/18 08:27:40;;;;;;;9.70;1.50;;;;;;;12.49;100.00;101354.50;5063650;28;20041;-74
2022/09/18 08:30:07;;;;;;;;;;;;;;;12.56;100.00;101347.84;5043050;28;20032;-73
2022/09/18 08:32:33;;;;;;;8.75;1.45;;;;;;;12.59;100.00;101361.00;5042342;28;19923;-73
2022/09/18 08:35:01;;;;;;;4.82;2.22;;;;;;;12.47;100.00;101351.09;5065308;28;20033;-73
2022/09/18 08:37:28;;;;;;;7.22;1.27;;;;;;;12.54;100.00;101349.72;5052107;28;20036;-73
2022/09/18 08:40:13;;;;;;;4.70;0.95;;;;;;;12.53;100.00;101331.09;5062191;28;20122;-73
2022/09/18 08:43:15;;;;;;;3.30;1.25;;;;;;;12.58;100.00;101337.03;5044635;28;20048;-73
2022/09/18 08:46:07;;;;;;;7.82;1.83;;;;;;;12.51;100.00;101338.38;5062976;28;20081;-73
2022/09/18 08:48:42;;;;;;;6.30;1.08;;;;;;;12.50;100.00;101342.00;5036516;28;20040;-73
2022/09/18 08:51:42;;;;;;;7.07;1.40;;;;;;;12.69;100.00;101343.41;5043158;28;20032;-73
2022/09/18 08:54:49;;;;;;;5.63;1.95;;;;;;;12.67;100.00;101345.31;5053220;28;20538;-73
2022/09/18 08:57:57;;;;;;;11.10;3.55;;;;;;;12.55;100.00;101353.25;4984997;28;20057;-73
2022/09/18 09:00:42;;;;;;;6.10;2.28;;;;;;;12.63;100.00;101353.63;4969393;28;20050;-73
2022/09/18 09:03:58;;;;;;;10.35;2.17;;;;;;;12.61;100.00;101347.53;4984302;28;20041;-72
2022/09/18 09:06:52;;;;;;;10.38;2.25;;;;;;;12.46;100.00;101357.41;4975576;28;20047;-73
2022/09/18 09:10:02;;;;;;;4.47;1.35;;;;;;;12.57;100.00;101343.34;4976396;28;20041;-73
2022/09/18 09:12:39;;;;;;;;;;;;;;;12.73;100.00;101351.25;4964568;28;20581;-73
2022/09/18 09:15:26;;;;;;;5.93;1.30;;;;;;;12.74;100.00;101358.31;4975039;28;20403;-73
2022/09/18 09:18:05;;;;;;;8.77;1.30;;;;;;;12.73;100.00;101354.78;4969870;28;20611;-73
2022/09/18 09:20:53;;;;;;;7.50;1.13;;;;;;;12.75;100.00;101346.63;4991004;28;20038;-73
2022/09/18 09:23:34;;;;;;;11.33;1.77;;;;;;;12.73;100.00;101343.22;4989758;28;20073;-74
2022/09/18 09:26:12;;;;;;;4.78;1.70;;;;;;;12.81;100.00;101343.59;4979441;28;20061;-73
2022/09/18 09:29:13;;;;;;;4.32;1.48;;;;;;;12.64;100.00;101331.28;4971456;28;20048;-73
2022/09/18 09:32:06;;;;;;;1.73;0.90;;;;;;;12.75;100.00;101327.91;5029584;28;20173;-74
2022/09/18 09:35:03;;;;;;;1.67;0.88;;;;;;;12.94;100.00;101325.75;5023937;28;20046;-72
2022/09/18 09:37:41;;;;;;;3.63;0.95;;;;;;;13.19;100.00;101320.50;5045508;28;20461;-73
2022/09/18 09:40:15;;;;;;;0.82;0.82;;;;;;;13.22;100.00;101314.13;5046927;28;20028;-72
2022/09/18 09:43:25;;;;;;;4.57;0.88;;;;;;;13.38;100.00;101324.66;5067176;28;20075;-73
2022/09/18 09:45:55;;;;;;;3.30;0.93;;;;;;;13.42;100.00;101320.81;4989736;28;20046;-72
2022/09/18 09:48:33;;;;;;;3.90;0.77;;;;;;;13.23;100.00;101328.38;4976455;28;20048;-73
2022/09/18 09:51:12;;;;;;;3.47;0.88;;;;;;;13.33;100.00;101324.97;4970754;28;20053;-72
2022/09/18 09:53:38;;;;;;;6.90;1.17;;;;;;;13.53;100.00;101318.25;4981762;28;20149;-72
2022/09/18 09:56:38;;;;;;;4.47;1.15;;;;;;;13.59;100.00;101323.19;4972096;28;20052;-74
2022/09/18 09:59:25;;;;;;;3.55;1.60;;;;;;;13.83;100.00;101327.84;4979015;28;20070;-72
2022/09/18 10:03:05;;;;;;;2.75;1.40;;;;;;;13.54;100.00;101324.47;4924906;29;20055;-72
2022/09/18 10:05:47;;;;;;;3.85;1.30;;;;;;;13.83;100.00;101314.44;4905474;29;20051;-72
2022/09/18 10:08:31;;;;;;;5.97;1.30;;;;;;;13.97;100.00;101306.28;4924293;29;20040;-72
2022/09/18 10:11:01;;;;;;;2.13;0.90;;;;;;;14.00;100.00;101312.28;4924112;29;20051;-73
2022/09/18 10:13:57;;;;;;;4.53;1.35;;;;;;;14.12;100.00;101315.94;4913701;29;20043;-72
2022/09/18 10:16:48;;;;;;;8.02;1.10;;;;;;;13.91;100.00;101314.78;4927947;28;20827;-71
2022/09/18 10:19:18;;;;;;;;;;;;;;;13.97;100.00;101317.00;4925510;29;20051;-73
2022/09/18 10:21:44;;;;;;;5.38;2.08;;;;;;;14.20;100.00;101318.91;4935094;29;20569;-72
2022/09/18 10:24:45;;;;;;;5.70;2.22;;;;;;;14.39;100.00;101314.94;4924373;28;20154;-72
2022/09/18 10:27:14;;;;;;;1.77;0.80;;;;;;;13.92;100.00;101320.03;4924415;29;20062;-72
2022/09/18 10:29:41;;;;;;;1.70;1.13;;;;;;;14.20;100.00;101304.66;4935018;28;20047;-72
2022/09/18 10:32:11;;;;;;;2.38;1.33;;;;;;;14.56;100.00;101303.00;4947458;28;20063;-71
2022/09/18 10:34:48;;;;;;;5.55;1.02;;;;;;;14.25;100.00;101308.72;4938960;28;20039;-71
2022/09/18 10:37:35;;;;;;;3.00;1.13;;;;;;;14.36;100.00;101305.28;4934392;29;20036;-71
2022/09/18 10:40:30;;;;;;;5.82;1.10;;;;;;;14.26;100.00;101309.59;5032421;28;20488;-72
2022/09/18 10:42:58;;;;;;;3.58;0.98;;;;;;;14.42;100.00;101301.31;5047689;28;20032;-71
2022/09/18 10:45:27;;;;;;;2.30;0.80;;;;;;;14.16;100.00;101300.50;5042953;28;20100;-71
2022/09/18 10:48:15;;;;;;;4.15;1.00;;;;;;;13.96;100.00;101304.59;5043712;28;20037;-71
2022/09/18 10:51:01;;;;;;;4.53;0.82;;;;;;;14.05;100.00;101306.59;5037576;28;20037;-72
2022/09/18 10:54:17;;;;;;;6.05;1.10;;;;;;;13.93;100.00;101304.78;5042469;28;20060;-72
2022/09/18 10:57:27;;;;;;;3.78;1.10;;;;;;;13.80;100.00;101303.91;5047532;28;20507;-72
2022/09/18 10:59:54;;;;;;;3.08;1.02;;;;;;;13.77;100.00;101302.31;5043099;28;20547;-72
2022/09/18 11:02:23;;;;;;;11.82;1.90;;;;;;;13.76;100.00;101297.94;5042949;28;20055;-72
2022/09/18 11:04:50;;;;;;;6.55;1.45;;;;;;;13.73;100.00;101304.34;5062513;28;20080;-72
2022/09/18 11:07:20;;;;;;;5.57;0.90;;;;;;;13.50;100.00;101297.03;5025405;28;20167;-71
2022/09/18 11:09:47;;;;;;;2.80;1.15;;;;;;;13.56;100.00;101299.31;5047634;28;20028;-72
2022/09/18 11:12:23;;;;;;;6.85;1.23;;;;;;;13.76;100.00;101297.06;5042942;28;20144;-72
2022/09/18 11:15:01;;;;;;;6.93;1.10;;;;;;;13.60;100.00;101302.59;5061924;28;20090;-72
2022/09/18 11:17:32;;;;;;;6.55;1.17;;;;;;;13.66;100.00;101299.53;5063119;28;20041;-73
2022/09/18 11:20:02;;;;;;;5.35;1.58;;;;;;;13.54;100.00;101311.06;5047117;28;20036;-72
2022/09/18 11:22:43;;;;;;;2.85;1.10;;;;;;;13.48;100.00;101310.53;5015946;28;20033;-72
2022/09/18 11:25:26;;;;;;;1.15;0.65;;;;;;;13.36;100.00;101307.84;5044261;28;20029;-72
2022/09/18 11:27:59;;;;;;;6.38;1.40;;;;;;;13.47;100.00;101316.00;5042178;28;20040;-72
2022/09/18 11:30:33;;;;;;;4.40;0.85;;;;;;;13.46;100.00;101315.16;5045735;28;20477;-70
2022/09/18 11:33:13;;;;;;;5.53;1.70;;;;;;;13.63;100.00;101311.31;5062032;28;20044;-72
2022/09/18 11:35:51;;;;;;;4.68;0.82;;;;;;;13.48;100.00;101309.69;5038524;28;20086;-72
2022/09/18 11:38:18;;;;;;;3.55;1.00;;;;;;;13.55;100.00;101318.16;5058676;28;20045;-72
2022/09/18 11:40:54;;;;;;;3.60;0.90;;;;;;;13.47;100.00;101322.22;5042203;28;20112;-72
2022/09/18 11:43:35;;;;;;;4.43;0.70;;;;;;;13.39;100.00;101319.19;5045120;28;20045;-72
2022/09/18 11:46:17;;;;;;;3.30;1.08;;;;;;;13.20;100.00;101307.94;5045558;28;20036;-71
2022/09/18 11:48:50;;;;;;;6.03;1.47;;;;;;;13.35;100.00;101312.31;5060280;28;20089;-72